sensor_id;sensor_type;location;lat;lon;timestamp;pressure;altitude;pressure_sealevel;temperature;humidity
14343;BME280;7255;53.596;9.960;2023-04-27T00:01:22;101545.59;;;4.55;nan
14343;BME280;7255;53.596;9.960;2023-04-27T00:03:48;101538.78;;;4.60;nan
14343;BME280;7255;53.596;9.960;2023-04-27T00:06:16;101542.44;;;4.59;nan
14343;BME280;7255;53.596;9.960;2023-04-27T00:08:42;101545.28;;;4.58;nan
14343;BME280;7255;53.596;9.960;2023-04-27T00:11:09;101538.09;;;4.50;nan
14343;BME280;7255;53.596;9.960;2023-04-27T00:13:35;101531.13;;;4.49;nan
14343;BME280;7255;53.596;9.960;2023-04-27T00:16:01;101529.78;;;4.45;nan
14343;BME280;7255;53.596;9.960;2023-04-27T00:18:28;101533.47;;;4.60;nan
14343;BME280;7255;53.596;9.960;2023-04-27T00:20:54;101534.78;;;4.48;nan
14343;BME280;7255;53.596;9.960;2023-04-27T00:23:22;101538.44;;;4.47;nan
14343;BME280;7255;53.596;9.960;2023-04-27T00:25:48;101534.78;;;4.48;nan
14343;BME280;7255;53.596;9.960;2023-04-27T00:28:14;101525.97;;;4.56;nan
14343;BME280;7255;53.596;9.960;2023-04-27T00:30:41;101522.31;;;4.57;nan
14343;BME280;7255;53.596;9.960;2023-04-27T00:33:09;101531.63;;;4.53;nan
14343;BME280;7255;53.596;9.960;2023-04-27T00:35:35;101523.31;;;4.48;nan
14343;BME280;7255;53.596;9.960;2023-04-27T00:38:01;101519.97;;;4.46;nan
14343;BME280;7255;53.596;9.960;2023-04-27T00:40:29;101512.47;;;4.41;nan
14343;BME280;7255;53.596;9.960;2023-04-27T00:42:55;101511.16;;;4.37;nan
14343;BME280;7255;53.596;9.960;2023-04-27T00:45:22;101514.16;;;4.42;nan
14343;BME280;7255;53.596;9.960;2023-04-27T00:47:48;101528.13;;;4.44;nan
14343;BME280;7255;53.596;9.960;2023-04-27T00:50:15;101528.78;;;4.38;nan
14343;BME280;7255;53.596;9.960;2023-04-27T00:52:41;101529.13;;;4.35;nan
14343;BME280;7255;53.596;9.960;2023-04-27T00:55:08;101530.12;;;4.42;nan
14343;BME280;7255;53.596;9.960;2023-04-27T00:57:36;101531.78;;;4.43;nan
14343;BME280;7255;53.596;9.960;2023-04-27T01:00:03;101539.44;;;4.38;nan
14343;BME280;7255;53.596;9.960;2023-04-27T01:02:31;101530.75;;;4.36;nan
14343;BME280;7255;53.596;9.960;2023-04-27T01:04:57;101537.25;;;4.33;nan
14343;BME280;7255;53.596;9.960;2023-04-27T01:07:24;101532.44;;;4.37;nan
14343;BME280;7255;53.596;9.960;2023-04-27T01:09:51;101537.75;;;4.37;nan
14343;BME280;7255;53.596;9.960;2023-04-27T01:12:17;101538.44;;;4.31;nan
14343;BME280;7255;53.596;9.960;2023-04-27T01:14:44;101543.75;;;4.31;nan
14343;BME280;7255;53.596;9.960;2023-04-27T01:17:11;101543.25;;;4.27;nan
14343;BME280;7255;53.596;9.960;2023-04-27T01:19:38;101546.56;;;4.29;nan
14343;BME280;7255;53.596;9.960;2023-04-27T01:22:04;101550.03;;;4.21;nan
14343;BME280;7255;53.596;9.960;2023-04-27T01:24:33;101547.72;;;4.27;nan
14343;BME280;7255;53.596;9.960;2023-04-27T01:26:59;101547.38;;;4.30;nan
14343;BME280;7255;53.596;9.960;2023-04-27T01:29:26;101541.75;;;4.33;nan
14343;BME280;7255;53.596;9.960;2023-04-27T01:31:53;101547.06;;;4.33;nan
14343;BME280;7255;53.596;9.960;2023-04-27T01:34:19;101555.37;;;4.21;nan
14343;BME280;7255;53.596;9.960;2023-04-27T01:36:46;101550.88;;;4.22;nan
14343;BME280;7255;53.596;9.960;2023-04-27T01:39:12;101553.69;;;4.20;nan
14343;BME280;7255;53.596;9.960;2023-04-27T01:41:40;101556.34;;;4.12;nan
14343;BME280;7255;53.596;9.960;2023-04-27T01:44:06;101551.53;;;4.16;nan
14343;BME280;7255;53.596;9.960;2023-04-27T01:46:32;101558.00;;;4.13;nan
14343;BME280;7255;53.596;9.960;2023-04-27T01:48:59;101547.34;;;4.13;nan
14343;BME280;7255;53.596;9.960;2023-04-27T01:51:25;101561.97;;;4.09;nan
14343;BME280;7255;53.596;9.960;2023-04-27T01:53:52;101557.16;;;4.13;nan
14343;BME280;7255;53.596;9.960;2023-04-27T01:56:18;101560.50;;;4.15;nan
14343;BME280;7255;53.596;9.960;2023-04-27T01:58:45;101555.94;;;3.99;nan
14343;BME280;7255;53.596;9.960;2023-04-27T02:01:12;101557.62;;;4.00;nan
14343;BME280;7255;53.596;9.960;2023-04-27T02:03:38;101577.56;;;3.96;nan
14343;BME280;7255;53.596;9.960;2023-04-27T02:06:05;101583.03;;;4.02;nan
14343;BME280;7255;53.596;9.960;2023-04-27T02:08:31;101593.88;;;4.09;nan
14343;BME280;7255;53.596;9.960;2023-04-27T02:10:57;101596.19;;;4.04;nan
14343;BME280;7255;53.596;9.960;2023-04-27T02:13:24;101596.50;;;4.01;nan
14343;BME280;7255;53.596;9.960;2023-04-27T02:15:52;101596.25;;;4.20;nan
14343;BME280;7255;53.596;9.960;2023-04-27T02:18:20;101596.09;;;4.30;nan
14343;BME280;7255;53.596;9.960;2023-04-27T02:20:46;101602.28;;;4.31;nan
14343;BME280;7255;53.596;9.960;2023-04-27T02:23:12;101583.63;;;4.22;nan
14343;BME280;7255;53.596;9.960;2023-04-27T02:25:39;101586.63;;;4.28;nan
14343;BME280;7255;53.596;9.960;2023-04-27T02:28:08;101593.78;;;4.35;nan
14343;BME280;7255;53.596;9.960;2023-04-27T02:30:35;101599.97;;;4.52;nan
14343;BME280;7255;53.596;9.960;2023-04-27T02:33:03;101602.63;;;4.44;nan
14343;BME280;7255;53.596;9.960;2023-04-27T02:35:30;101600.16;;;4.59;nan
14343;BME280;7255;53.596;9.960;2023-04-27T02:37:57;101592.03;;;4.60;nan
14343;BME280;7255;53.596;9.960;2023-04-27T02:40:23;101639.16;;;4.76;nan
14343;BME280;7255;53.596;9.960;2023-04-27T02:42:50;101609.84;;;4.85;nan
14343;BME280;7255;53.596;9.960;2023-04-27T02:45:16;101614.19;;;4.94;nan
14343;BME280;7255;53.596;9.960;2023-04-27T02:47:43;101651.97;;;4.97;nan
14343;BME280;7255;53.596;9.960;2023-04-27T02:50:11;101596.06;;;5.06;nan
14343;BME280;7255;53.596;9.960;2023-04-27T02:52:37;101592.69;;;4.87;nan
14343;BME280;7255;53.596;9.960;2023-04-27T02:55:04;101606.69;;;4.73;nan
14343;BME280;7255;53.596;9.960;2023-04-27T02:57:31;101608.69;;;4.71;nan
14343;BME280;7255;53.596;9.960;2023-04-27T02:59:57;101603.37;;;4.71;nan
14343;BME280;7255;53.596;9.960;2023-04-27T03:02:23;101595.19;;;4.72;nan
14343;BME280;7255;53.596;9.960;2023-04-27T03:04:51;101594.88;;;4.75;nan
14343;BME280;7255;53.596;9.960;2023-04-27T03:07:20;101600.69;;;4.79;nan
14343;BME280;7255;53.596;9.960;2023-04-27T03:09:46;101602.03;;;4.83;nan
14343;BME280;7255;53.596;9.960;2023-04-27T03:12:12;101602.38;;;4.80;nan
14343;BME280;7255;53.596;9.960;2023-04-27T03:14:39;101599.03;;;4.78;nan
14343;BME280;7255;53.596;9.960;2023-04-27T03:17:05;101599.84;;;4.62;nan
14343;BME280;7255;53.596;9.960;2023-04-27T03:19:31;101589.53;;;4.59;nan
14343;BME280;7255;53.596;9.960;2023-04-27T03:21:58;101600.28;;;4.33;nan
14343;BME280;7255;53.596;9.960;2023-04-27T03:24:25;101590.63;;;4.23;nan
14343;BME280;7255;53.596;9.960;2023-04-27T03:26:52;101600.59;;;4.30;nan
14343;BME280;7255;53.596;9.960;2023-04-27T03:29:18;101597.47;;;4.34;nan
14343;BME280;7255;53.596;9.960;2023-04-27T03:31:44;101578.28;;;4.22;nan
14343;BME280;7255;53.596;9.960;2023-04-27T03:34:11;101581.25;;;4.11;nan
14343;BME280;7255;53.596;9.960;2023-04-27T03:36:37;101572.94;;;4.06;nan
14343;BME280;7255;53.596;9.960;2023-04-27T03:39:03;101575.22;;;4.01;nan
14343;BME280;7255;53.596;9.960;2023-04-27T03:41:31;101584.38;;;4.07;nan
14343;BME280;7255;53.596;9.960;2023-04-27T03:43:57;101588.25;;;4.12;nan
14343;BME280;7255;53.596;9.960;2023-04-27T03:46:24;101593.88;;;4.09;nan
14343;BME280;7255;53.596;9.960;2023-04-27T03:48:51;101595.53;;;4.10;nan
14343;BME280;7255;53.596;9.960;2023-04-27T03:51:17;101596.50;;;4.01;nan
14343;BME280;7255;53.596;9.960;2023-04-27T03:53:43;101600.47;;;3.97;nan
14343;BME280;7255;53.596;9.960;2023-04-27T03:56:10;101590.59;;;3.81;nan
14343;BME280;7255;53.596;9.960;2023-04-27T03:58:37;101595.09;;;3.80;nan
14343;BME280;7255;53.596;9.960;2023-04-27T04:01:04;101600.63;;;3.87;nan
14343;BME280;7255;53.596;9.960;2023-04-27T04:03:30;101595.47;;;3.94;nan
14343;BME280;7255;53.596;9.960;2023-04-27T04:05:57;101601.66;;;3.94;nan
14343;BME280;7255;53.596;9.960;2023-04-27T04:08:23;101602.09;;;3.81;nan
14343;BME280;7255;53.596;9.960;2023-04-27T04:10:50;101596.84;;;3.98;nan
14343;BME280;7255;53.596;9.960;2023-04-27T04:13:16;101608.31;;;3.98;nan
14343;BME280;7255;53.596;9.960;2023-04-27T04:15:43;101601.19;;;4.07;nan
14343;BME280;7255;53.596;9.960;2023-04-27T04:18:10;101611.38;;;4.20;nan
14343;BME280;7255;53.596;9.960;2023-04-27T04:20:36;101609.75;;;4.35;nan
14343;BME280;7255;53.596;9.960;2023-04-27T04:23:02;101615.91;;;4.36;nan
14343;BME280;7255;53.596;9.960;2023-04-27T04:25:29;101606.94;;;4.37;nan
14343;BME280;7255;53.596;9.960;2023-04-27T04:27:56;101615.41;;;4.32;nan
14343;BME280;7255;53.596;9.960;2023-04-27T04:30:22;101606.13;;;4.36;nan
14343;BME280;7255;53.596;9.960;2023-04-27T04:32:50;101621.94;;;4.46;nan
14343;BME280;7255;53.596;9.960;2023-04-27T04:35:16;101631.91;;;4.52;nan
14343;BME280;7255;53.596;9.960;2023-04-27T04:37:43;101634.78;;;4.51;nan
14343;BME280;7255;53.596;9.960;2023-04-27T04:40:11;101643.28;;;4.62;nan
14343;BME280;7255;53.596;9.960;2023-04-27T04:42:38;101635.47;;;4.77;nan
14343;BME280;7255;53.596;9.960;2023-04-27T04:45:05;101658.97;;;4.82;nan
14343;BME280;7255;53.596;9.960;2023-04-27T04:47:32;101640.16;;;4.84;nan
14343;BME280;7255;53.596;9.960;2023-04-27T04:49:59;101650.81;;;4.84;nan
14343;BME280;7255;53.596;9.960;2023-04-27T04:52:26;101652.97;;;4.88;nan
14343;BME280;7255;53.596;9.960;2023-04-27T04:54:52;101647.47;;;4.98;nan
14343;BME280;7255;53.596;9.960;2023-04-27T04:57:18;101646.97;;;4.94;nan
14343;BME280;7255;53.596;9.960;2023-04-27T04:59:45;101653.94;;;4.79;nan
14343;BME280;7255;53.596;9.960;2023-04-27T05:02:11;101655.28;;;4.83;nan
14343;BME280;7255;53.596;9.960;2023-04-27T05:04:38;101662.09;;;4.77;nan
14343;BME280;7255;53.596;9.960;2023-04-27T05:07:05;101663.97;;;5.01;nan
14343;BME280;7255;53.596;9.960;2023-04-27T05:09:32;101673.63;;;5.11;nan
14343;BME280;7255;53.596;9.960;2023-04-27T05:12:00;101677.97;;;5.20;nan
14343;BME280;7255;53.596;9.960;2023-04-27T05:14:26;101677.47;;;5.33;nan
14343;BME280;7255;53.596;9.960;2023-04-27T05:16:53;101674.00;;;5.24;nan
14343;BME280;7255;53.596;9.960;2023-04-27T05:19:19;101664.16;;;5.08;nan
14343;BME280;7255;53.596;9.960;2023-04-27T05:21:45;101671.78;;;5.03;nan
14343;BME280;7255;53.596;9.960;2023-04-27T05:24:13;101669.28;;;5.01;nan
14343;BME280;7255;53.596;9.960;2023-04-27T05:26:41;101674.13;;;5.14;nan
14343;BME280;7255;53.596;9.960;2023-04-27T05:29:07;101667.97;;;5.14;nan
14343;BME280;7255;53.596;9.960;2023-04-27T05:31:34;101666.47;;;5.19;nan
14343;BME280;7255;53.596;9.960;2023-04-27T05:34:00;101672.31;;;5.23;nan
14343;BME280;7255;53.596;9.960;2023-04-27T05:36:26;101673.63;;;5.27;nan
14343;BME280;7255;53.596;9.960;2023-04-27T05:38:53;101681.63;;;5.19;nan
14343;BME280;7255;53.596;9.960;2023-04-27T05:41:20;101672.81;;;5.27;nan
14343;BME280;7255;53.596;9.960;2023-04-27T05:43:47;101674.31;;;5.37;nan
14343;BME280;7255;53.596;9.960;2023-04-27T05:46:14;101676.63;;;5.32;nan
14343;BME280;7255;53.596;9.960;2023-04-27T05:48:40;101679.62;;;5.37;nan
14343;BME280;7255;53.596;9.960;2023-04-27T05:51:07;101677.31;;;5.59;nan
14343;BME280;7255;53.596;9.960;2023-04-27T05:53:34;101681.94;;;5.65;nan
14343;BME280;7255;53.596;9.960;2023-04-27T05:56:00;101664.47;;;5.54;nan
14343;BME280;7255;53.596;9.960;2023-04-27T05:58:29;101681.44;;;5.62;nan
14343;BME280;7255;53.596;9.960;2023-04-27T06:00:57;101677.97;;;5.53;nan
14343;BME280;7255;53.596;9.960;2023-04-27T06:03:23;101691.13;;;5.54;nan
14343;BME280;7255;53.596;9.960;2023-04-27T06:05:53;101694.13;;;5.59;nan
14343;BME280;7255;53.596;9.960;2023-04-27T06:08:19;101691.63;;;5.58;nan
14343;BME280;7255;53.596;9.960;2023-04-27T06:10:46;101707.44;;;5.68;nan
14343;BME280;7255;53.596;9.960;2023-04-27T06:13:12;101706.59;;;5.67;nan
14343;BME280;7255;53.596;9.960;2023-04-27T06:15:40;101693.31;;;5.59;nan
14343;BME280;7255;53.596;9.960;2023-04-27T06:18:06;101698.94;;;5.72;nan
14343;BME280;7255;53.596;9.960;2023-04-27T06:20:33;101704.44;;;5.79;nan
14343;BME280;7255;53.596;9.960;2023-04-27T06:23:00;101706.59;;;6.00;nan
14343;BME280;7255;53.596;9.960;2023-04-27T06:25:26;101705.44;;;6.03;nan
14343;BME280;7255;53.596;9.960;2023-04-27T06:27:53;101708.06;;;6.11;nan
14343;BME280;7255;53.596;9.960;2023-04-27T06:30:19;101721.03;;;6.22;nan
14343;BME280;7255;53.596;9.960;2023-04-27T06:32:48;101720.50;;;6.35;nan
14343;BME280;7255;53.596;9.960;2023-04-27T06:35:14;101723.16;;;6.43;nan
14343;BME280;7255;53.596;9.960;2023-04-27T06:37:40;101731.09;;;6.51;nan
14343;BME280;7255;53.596;9.960;2023-04-27T06:40:07;101727.00;;;6.72;nan
14343;BME280;7255;53.596;9.960;2023-04-27T06:42:33;101734.50;;;6.77;nan
14343;BME280;7255;53.596;9.960;2023-04-27T06:45:00;101729.31;;;6.83;nan
14343;BME280;7255;53.596;9.960;2023-04-27T06:47:26;101735.97;;;6.87;nan
14343;BME280;7255;53.596;9.960;2023-04-27T06:49:54;101722.22;;;6.59;nan
14343;BME280;7255;53.596;9.960;2023-04-27T06:52:20;101726.53;;;6.68;nan
14343;BME280;7255;53.596;9.960;2023-04-27T06:54:47;101715.16;;;6.74;nan
14343;BME280;7255;53.596;9.960;2023-04-27T06:57:13;101716.53;;;6.62;nan
14343;BME280;7255;53.596;9.960;2023-04-27T06:59:39;101711.84;;;6.72;nan
14343;BME280;7255;53.596;9.960;2023-04-27T07:02:06;101714.91;;;6.84;nan
14343;BME280;7255;53.596;9.960;2023-04-27T07:04:33;101719.34;;;7.00;nan
14343;BME280;7255;53.596;9.960;2023-04-27T07:07:02;101726.13;;;7.11;nan
14343;BME280;7255;53.596;9.960;2023-04-27T07:09:28;101736.81;;;7.11;nan
14343;BME280;7255;53.596;9.960;2023-04-27T07:11:54;101740.25;;;7.20;nan
14343;BME280;7255;53.596;9.960;2023-04-27T07:14:21;101739.19;;;7.06;nan
14343;BME280;7255;53.596;9.960;2023-04-27T07:16:48;101745.97;;;7.17;nan
14343;BME280;7255;53.596;9.960;2023-04-27T07:19:14;101741.09;;;7.20;nan
14343;BME280;7255;53.596;9.960;2023-04-27T07:21:40;101746.44;;;7.20;nan
14343;BME280;7255;53.596;9.960;2023-04-27T07:24:08;101762.94;;;7.47;nan
14343;BME280;7255;53.596;9.960;2023-04-27T07:26:34;101774.44;;;7.94;nan
14343;BME280;7255;53.596;9.960;2023-04-27T07:29:01;101786.41;;;8.21;nan
14343;BME280;7255;53.596;9.960;2023-04-27T07:31:27;101788.97;;;8.29;nan
14343;BME280;7255;53.596;9.960;2023-04-27T07:33:54;101801.56;;;8.73;nan
14343;BME280;7255;53.596;9.960;2023-04-27T07:36:20;101799.50;;;9.05;nan
14343;BME280;7255;53.596;9.960;2023-04-27T07:38:46;101800.75;;;8.73;nan
14343;BME280;7255;53.596;9.960;2023-04-27T07:41:15;101801.25;;;8.23;nan
14343;BME280;7255;53.596;9.960;2023-04-27T07:43:41;101779.69;;;7.87;nan
14343;BME280;7255;53.596;9.960;2023-04-27T07:46:07;101798.03;;;8.28;nan
14343;BME280;7255;53.596;9.960;2023-04-27T07:48:35;101801.31;;;8.53;nan
14343;BME280;7255;53.596;9.960;2023-04-27T07:51:02;101786.22;;;8.37;nan
14343;BME280;7255;53.596;9.960;2023-04-27T07:53:28;101791.19;;;8.10;nan
14343;BME280;7255;53.596;9.960;2023-04-27T07:55:55;101794.50;;;8.13;nan
14343;BME280;7255;53.596;9.960;2023-04-27T07:58:22;101792.47;;;8.15;nan
14343;BME280;7255;53.596;9.960;2023-04-27T08:00:49;101784.78;;;7.97;nan
14343;BME280;7255;53.596;9.960;2023-04-27T08:03:15;101782.97;;;8.12;nan
14343;BME280;7255;53.596;9.960;2023-04-27T08:05:42;101789.28;;;8.49;nan
14343;BME280;7255;53.596;9.960;2023-04-27T08:08:08;101792.44;;;8.67;nan
14343;BME280;7255;53.596;9.960;2023-04-27T08:10:34;101792.69;;;8.88;nan
14343;BME280;7255;53.596;9.960;2023-04-27T08:13:02;101801.66;;;9.53;nan
14343;BME280;7255;53.596;9.960;2023-04-27T08:15:30;101797.25;;;9.67;nan
14343;BME280;7255;53.596;9.960;2023-04-27T08:17:56;101809.56;;;9.61;nan
14343;BME280;7255;53.596;9.960;2023-04-27T08:20:23;101806.34;;;9.66;nan
14343;BME280;7255;53.596;9.960;2023-04-27T08:22:49;101805.09;;;9.68;nan
14343;BME280;7255;53.596;9.960;2023-04-27T08:25:16;101801.97;;;9.43;nan
14343;BME280;7255;53.596;9.960;2023-04-27T08:27:42;101793.03;;;9.57;nan
14343;BME280;7255;53.596;9.960;2023-04-27T08:30:09;101799.72;;;9.68;nan
14343;BME280;7255;53.596;9.960;2023-04-27T08:32:37;101805.44;;;10.08;nan
14343;BME280;7255;53.596;9.960;2023-04-27T08:35:04;101799.78;;;10.25;nan
14343;BME280;7255;53.596;9.960;2023-04-27T08:37:31;101806.31;;;10.15;nan
14343;BME280;7255;53.596;9.960;2023-04-27T08:39:57;101790.44;;;9.92;nan
14343;BME280;7255;53.596;9.960;2023-04-27T08:42:24;101792.75;;;9.74;nan
14343;BME280;7255;53.596;9.960;2023-04-27T08:44:50;101790.00;;;9.89;nan
14343;BME280;7255;53.596;9.960;2023-04-27T08:47:16;101787.34;;;10.17;nan
14343;BME280;7255;53.596;9.960;2023-04-27T08:49:44;101802.44;;;10.53;nan
14343;BME280;7255;53.596;9.960;2023-04-27T08:52:11;101790.94;;;10.02;nan
14343;BME280;7255;53.596;9.960;2023-04-27T08:54:38;101784.91;;;9.72;nan
14343;BME280;7255;53.596;9.960;2023-04-27T08:57:09;101777.25;;;9.48;nan
14343;BME280;7255;53.596;9.960;2023-04-27T08:59:35;101787.91;;;9.41;nan
14343;BME280;7255;53.596;9.960;2023-04-27T09:02:02;101785.22;;;9.19;nan
14343;BME280;7255;53.596;9.960;2023-04-27T09:04:35;101779.31;;;9.46;nan
14343;BME280;7255;53.596;9.960;2023-04-27T09:07:10;101778.72;;;9.72;nan
14343;BME280;7255;53.596;9.960;2023-04-27T09:09:36;101784.16;;;9.78;nan
14343;BME280;7255;53.596;9.960;2023-04-27T09:12:12;101784.91;;;9.72;nan
14343;BME280;7255;53.596;9.960;2023-04-27T09:14:39;101764.66;;;9.70;nan
14343;BME280;7255;53.596;9.960;2023-04-27T09:17:05;101781.12;;;9.67;nan
14343;BME280;7255;53.596;9.960;2023-04-27T09:19:32;101779.50;;;9.66;nan
14343;BME280;7255;53.596;9.960;2023-04-27T09:22:06;101780.03;;;9.82;nan
14343;BME280;7255;53.596;9.960;2023-04-27T09:24:33;101784.41;;;10.12;nan
14343;BME280;7255;53.596;9.960;2023-04-27T09:27:00;101785.28;;;10.19;nan
14343;BME280;7255;53.596;9.960;2023-04-27T09:29:34;101787.56;;;9.94;nan
14343;BME280;7255;53.596;9.960;2023-04-27T09:32:01;101779.44;;;9.59;nan
14343;BME280;7255;53.596;9.960;2023-04-27T09:34:37;101778.66;;;9.65;nan
14343;BME280;7255;53.596;9.960;2023-04-27T09:37:03;101776.47;;;10.03;nan
14343;BME280;7255;53.596;9.960;2023-04-27T09:39:30;101776.47;;;10.03;nan
14343;BME280;7255;53.596;9.960;2023-04-27T09:41:58;101788.44;;;10.57;nan
14343;BME280;7255;53.596;9.960;2023-04-27T09:44:25;101783.88;;;10.58;nan
14343;BME280;7255;53.596;9.960;2023-04-27T09:46:51;101782.56;;;10.47;nan
14343;BME280;7255;53.596;9.960;2023-04-27T09:49:18;101780.56;;;10.56;nan
14343;BME280;7255;53.596;9.960;2023-04-27T09:51:46;101775.50;;;10.39;nan
14343;BME280;7255;53.596;9.960;2023-04-27T09:54:13;101778.50;;;10.58;nan
14343;BME280;7255;53.596;9.960;2023-04-27T09:56:47;101794.84;;;11.11;nan
14343;BME280;7255;53.596;9.960;2023-04-27T09:59:35;101782.37;;;10.90;nan
14343;BME280;7255;53.596;9.960;2023-04-27T10:02:05;101773.22;;;10.78;nan
14343;BME280;7255;53.596;9.960;2023-04-27T10:04:44;101784.69;;;10.52;nan
14343;BME280;7255;53.596;9.960;2023-04-27T10:07:16;101782.44;;;10.27;nan
14343;BME280;7255;53.596;9.960;2023-04-27T10:09:45;101781.09;;;10.10;nan
14343;BME280;7255;53.596;9.960;2023-04-27T10:12:14;101776.97;;;10.14;nan
14343;BME280;7255;53.596;9.960;2023-04-27T10:14:49;101784.69;;;10.58;nan
14343;BME280;7255;53.596;9.960;2023-04-27T10:17:16;101782.72;;;10.74;nan
14343;BME280;7255;53.596;9.960;2023-04-27T10:19:52;101781.12;;;10.93;nan
14343;BME280;7255;53.596;9.960;2023-04-27T10:22:20;101783.16;;;10.84;nan
14343;BME280;7255;53.596;9.960;2023-04-27T10:24:48;101785.38;;;11.15;nan
14343;BME280;7255;53.596;9.960;2023-04-27T10:27:16;101787.94;;;11.64;nan
14343;BME280;7255;53.596;9.960;2023-04-27T10:29:45;101780.03;;;11.55;nan
14343;BME280;7255;53.596;9.960;2023-04-27T10:32:18;101787.09;;;11.56;nan
14343;BME280;7255;53.596;9.960;2023-04-27T10:34:45;101804.44;;;11.27;nan
14343;BME280;7255;53.596;9.960;2023-04-27T10:37:14;101798.59;;;11.17;nan
14343;BME280;7255;53.596;9.960;2023-04-27T10:39:41;101806.53;;;11.52;nan
14343;BME280;7255;53.596;9.960;2023-04-27T10:42:08;101802.41;;;11.49;nan
14343;BME280;7255;53.596;9.960;2023-04-27T10:44:36;101797.88;;;11.70;nan
14343;BME280;7255;53.596;9.960;2023-04-27T10:47:12;101818.22;;;11.99;nan
14343;BME280;7255;53.596;9.960;2023-04-27T10:49:39;101800.78;;;11.88;nan
14343;BME280;7255;53.596;9.960;2023-04-27T10:52:06;101790.41;;;11.59;nan
14343;BME280;7255;53.596;9.960;2023-04-27T10:54:34;101791.25;;;11.52;nan
14343;BME280;7255;53.596;9.960;2023-04-27T10:57:02;101817.34;;;11.79;nan
14343;BME280;7255;53.596;9.960;2023-04-27T10:59:29;101814.84;;;11.50;nan
14343;BME280;7255;53.596;9.960;2023-04-27T11:01:55;101813.97;;;11.36;nan
14343;BME280;7255;53.596;9.960;2023-04-27T11:04:21;101809.84;;;11.47;nan
14343;BME280;7255;53.596;9.960;2023-04-27T11:06:49;101804.75;;;11.04;nan
14343;BME280;7255;53.596;9.960;2023-04-27T11:09:24;101797.28;;;10.93;nan
14343;BME280;7255;53.596;9.960;2023-04-27T11:11:51;101801.34;;;10.82;nan
14343;BME280;7255;53.596;9.960;2023-04-27T11:14:19;101807.31;;;11.26;nan
14343;BME280;7255;53.596;9.960;2023-04-27T11:16:46;101807.78;;;11.49;nan
14343;BME280;7255;53.596;9.960;2023-04-27T11:19:13;101804.91;;;11.78;nan
14343;BME280;7255;53.596;9.960;2023-04-27T11:21:39;101804.09;;;11.64;nan
14343;BME280;7255;53.596;9.960;2023-04-27T11:24:08;101825.66;;;12.17;nan
14343;BME280;7255;53.596;9.960;2023-04-27T11:26:34;101819.44;;;12.23;nan
14343;BME280;7255;53.596;9.960;2023-04-27T11:29:03;101813.63;;;12.26;nan
14343;BME280;7255;53.596;9.960;2023-04-27T11:31:38;101829.38;;;12.49;nan
14343;BME280;7255;53.596;9.960;2023-04-27T11:34:06;101832.63;;;12.58;nan
14343;BME280;7255;53.596;9.960;2023-04-27T11:36:32;101822.12;;;13.02;nan
14343;BME280;7255;53.596;9.960;2023-04-27T11:38:58;101829.75;;;13.57;nan
14343;BME280;7255;53.596;9.960;2023-04-27T11:41:33;101823.72;;;13.16;nan
14343;BME280;7255;53.596;9.960;2023-04-27T11:44:03;101828.31;;;13.09;nan
14343;BME280;7255;53.596;9.960;2023-04-27T11:46:32;101836.53;;;13.27;nan
14343;BME280;7255;53.596;9.960;2023-04-27T11:49:00;101835.66;;;13.40;nan
14343;BME280;7255;53.596;9.960;2023-04-27T11:51:28;101823.44;;;12.86;nan
14343;BME280;7255;53.596;9.960;2023-04-27T11:53:55;101832.16;;;12.88;nan
14343;BME280;7255;53.596;9.960;2023-04-27T11:56:21;101824.38;;;12.53;nan
14343;BME280;7255;53.596;9.960;2023-04-27T11:58:48;101820.69;;;12.27;nan
14343;BME280;7255;53.596;9.960;2023-04-27T12:01:15;101817.34;;;12.39;nan
14343;BME280;7255;53.596;9.960;2023-04-27T12:03:41;101824.38;;;12.40;nan
14343;BME280;7255;53.596;9.960;2023-04-27T12:06:07;101813.16;;;12.56;nan
14343;BME280;7255;53.596;9.960;2023-04-27T12:08:34;101818.94;;;12.66;nan
14343;BME280;7255;53.596;9.960;2023-04-27T12:11:00;101822.66;;;12.65;nan
14343;BME280;7255;53.596;9.960;2023-04-27T12:13:26;101830.44;;;13.00;nan
14343;BME280;7255;53.596;9.960;2023-04-27T12:15:54;101826.34;;;13.68;nan
14343;BME280;7255;53.596;9.960;2023-04-27T12:18:21;101829.34;;;13.53;nan
14343;BME280;7255;53.596;9.960;2023-04-27T12:20:47;101822.09;;;13.15;nan
14343;BME280;7255;53.596;9.960;2023-04-27T12:23:13;101820.91;;;12.98;nan
14343;BME280;7255;53.596;9.960;2023-04-27T12:25:40;101821.06;;;12.51;nan
14343;BME280;7255;53.596;9.960;2023-04-27T12:28:08;101821.47;;;12.41;nan
14343;BME280;7255;53.596;9.960;2023-04-27T12:30:34;101818.22;;;11.99;nan
14343;BME280;7255;53.596;9.960;2023-04-27T12:33:02;101827.69;;;11.62;nan
14343;BME280;7255;53.596;9.960;2023-04-27T12:35:33;101816.47;;;11.38;nan
14343;BME280;7255;53.596;9.960;2023-04-27T12:38:00;101820.22;;;11.50;nan
14343;BME280;7255;53.596;9.960;2023-04-27T12:40:27;101821.06;;;11.58;nan
14343;BME280;7255;53.596;9.960;2023-04-27T12:42:53;101828.72;;;11.61;nan
14343;BME280;7255;53.596;9.960;2023-04-27T12:45:20;101835.19;;;12.06;nan
14343;BME280;7255;53.596;9.960;2023-04-27T12:47:46;101828.56;;;12.22;nan
14343;BME280;7255;53.596;9.960;2023-04-27T12:50:15;101837.97;;;12.78;nan
14343;BME280;7255;53.596;9.960;2023-04-27T12:52:42;101842.03;;;13.07;nan
14343;BME280;7255;53.596;9.960;2023-04-27T12:55:08;101849.78;;;13.42;nan
14343;BME280;7255;53.596;9.960;2023-04-27T12:57:35;101847.53;;;13.71;nan
14343;BME280;7255;53.596;9.960;2023-04-27T13:00:02;101847.22;;;13.54;nan
14343;BME280;7255;53.596;9.960;2023-04-27T13:02:29;101844.06;;;13.19;nan
14343;BME280;7255;53.596;9.960;2023-04-27T13:04:56;101837.09;;;12.98;nan
14343;BME280;7255;53.596;9.960;2023-04-27T13:07:23;101852.44;;;12.97;nan
14343;BME280;7255;53.596;9.960;2023-04-27T13:09:49;101835.12;;;12.66;nan
14343;BME280;7255;53.596;9.960;2023-04-27T13:12:16;101834.78;;;12.23;nan
14343;BME280;7255;53.596;9.960;2023-04-27T13:14:42;101832.72;;;11.91;nan
14343;BME280;7255;53.596;9.960;2023-04-27T13:17:10;101834.66;;;11.29;nan
14343;BME280;7255;53.596;9.960;2023-04-27T13:19:36;101833.00;;;10.17;nan
14343;BME280;7255;53.596;9.960;2023-04-27T13:22:03;101829.69;;;9.50;nan
14343;BME280;7255;53.596;9.960;2023-04-27T13:24:30;101830.59;;;9.21;nan
14343;BME280;7255;53.596;9.960;2023-04-27T13:26:57;101821.88;;;9.12;nan
14343;BME280;7255;53.596;9.960;2023-04-27T13:29:23;101823.06;;;9.10;nan